This is the latest recevied weather packets stored in our database for station/object DO1SC. If no packets are shown the sender has not sent any weather packets the latest 10 day(s).
| Time | Temp. | Humidity | Pressure | Rain* | Wind** | Luminosity | Snow |
|---|---|---|---|---|---|---|---|
| 1777022118 | 12.22° C | 37% | 1020.4 hPa | - | - | 465 W/m² | - |
| 1777021532 | 12.22° C | 35% | 1020.4 hPa | - | - | 429 W/m² | - |
| 1777020921 | 12.22° C | 34% | 1020.4 hPa | - | - | 499 W/m² | - |
| 1777020333 | 12.22° C | 32% | 1020.4 hPa | - | - | 495 W/m² | - |
| 1777019724 | 11.67° C | 32% | 1020.4 hPa | - | - | 480 W/m² | - |
| 1777019136 | 12.22° C | 30% | 1020.2 hPa | - | - | 467 W/m² | - |
| 1777018527 | 11.67° C | 30% | 1020.3 hPa | - | - | 451 W/m² | - |
| 1777017919 | 11.67° C | 30% | 1020.3 hPa | - | - | 423 W/m² | - |
| 1777017334 | 11.67° C | 29% | 1020.3 hPa | - | - | 400 W/m² | - |
| 1777016722 | 10.56° C | 32% | 1020.3 hPa | - | - | 371 W/m² | - |
| 1777016134 | 10.56° C | 31% | 1020.4 hPa | - | - | 338 W/m² | - |
| 1777015526 | 10.56° C | 32% | 1020.5 hPa | - | - | 309 W/m² | - |
| 1777014917 | 10° C | 31% | 1020.6 hPa | - | - | 270 W/m² | - |
| 1777014329 | 10.56° C | 30% | 1020.6 hPa | - | - | 237 W/m² | - |
| 1777013720 | 10° C | 29% | 1020.6 hPa | - | - | 130 W/m² | - |
| 1777013132 | 10° C | 29% | 1020.6 hPa | - | - | 105 W/m² | - |
| 1777012524 | 10° C | 30% | 1020.6 hPa | - | - | 121 W/m² | - |
| 1777011935 | 9.44° C | 30% | 1020.6 hPa | - | - | 62 W/m² | - |
| 1777011327 | 8.89° C | 32% | 1020.7 hPa | - | - | 37 W/m² | - |
| 1777010718 | 8.89° C | 34% | 1020.8 hPa | - | - | 34 W/m² | - |
| 1777010130 | 8.33° C | 35% | 1020.7 hPa | - | - | 33 W/m² | - |
| 1777009521 | 7.78° C | 37% | 1020.7 hPa | - | - | 35 W/m² | - |
| 1777008933 | 7.22° C | 39% | 1020.6 hPa | - | - | 29 W/m² | - |
| 1777008325 | 6.67° C | 42% | 1020.6 hPa | - | - | 26 W/m² | - |
| 1777007736 | 5.56° C | 53% | 1020.7 hPa | - | - | 26 W/m² | - |
* Rain since midnight (hover to see other rain measurements)
** Current wind speed in m/s (hover to see current wind gust speed)